createdAt,value
2023-10-10T00:01:45.940Z,2.00
2023-10-10T00:04:14.657Z,2.17
2023-10-10T00:06:43.393Z,3.20
2023-10-10T00:09:12.707Z,3.00
2023-10-10T00:11:46.978Z,1.93
2023-10-10T00:14:20.127Z,2.50
2023-10-10T00:16:50.022Z,3.27
2023-10-10T00:19:29.791Z,2.33
2023-10-10T00:21:58.481Z,3.30
2023-10-10T00:24:32.081Z,2.33
2023-10-10T00:27:02.779Z,2.73
2023-10-10T00:29:33.892Z,3.23
2023-10-10T00:32:13.592Z,3.00
2023-10-10T00:34:41.776Z,3.10
2023-10-10T00:37:12.270Z,2.90
2023-10-10T00:39:40.289Z,3.53
2023-10-10T00:42:15.428Z,2.20
2023-10-10T00:44:45.480Z,2.17
2023-10-10T00:47:27.521Z,2.30
2023-10-10T00:49:56.525Z,2.23
2023-10-10T00:52:24.769Z,2.30
2023-10-10T00:54:54.039Z,3.30
2023-10-10T00:57:22.445Z,1.93
2023-10-10T00:59:56.035Z,2.20
2023-10-10T01:02:25.032Z,3.13
2023-10-10T01:04:59.008Z,2.00
2023-10-10T01:07:28.072Z,2.57
2023-10-10T01:09:59.432Z,1.93
2023-10-10T01:12:30.054Z,3.30
2023-10-10T01:15:01.748Z,2.30
2023-10-10T01:17:34.271Z,1.93
2023-10-10T01:20:19.090Z,2.83
2023-10-10T01:22:50.161Z,2.30
2023-10-10T01:25:43.641Z,2.47
2023-10-10T01:28:34.763Z,2.03
2023-10-10T01:31:06.528Z,2.00
2023-10-10T01:33:42.821Z,2.30
2023-10-10T01:36:20.539Z,2.70
2023-10-10T01:39:24.935Z,2.53
2023-10-10T01:41:53.004Z,3.50
2023-10-10T01:44:24.074Z,1.97
2023-10-10T01:46:55.606Z,2.60
2023-10-10T01:49:30.513Z,2.63
2023-10-10T01:52:01.302Z,1.80
2023-10-10T01:54:41.545Z,1.80
2023-10-10T01:57:22.131Z,2.00
2023-10-10T01:59:51.119Z,1.80
2023-10-10T02:02:24.825Z,1.90
2023-10-10T02:04:57.767Z,3.30
2023-10-10T02:07:32.605Z,1.73
2023-10-10T02:10:13.305Z,2.70
2023-10-10T02:12:45.462Z,2.47
2023-10-10T02:15:17.548Z,3.00
2023-10-10T02:17:52.662Z,1.97
2023-10-10T02:20:35.282Z,2.87
2023-10-10T02:23:24.387Z,3.43
2023-10-10T02:25:55.886Z,3.00
2023-10-10T02:28:43.849Z,1.77
2023-10-10T02:31:16.629Z,1.93
2023-10-10T02:34:03.493Z,3.93
2023-10-10T02:36:36.394Z,2.50
2023-10-10T02:39:20.383Z,2.17
2023-10-10T02:42:00.323Z,3.30
2023-10-10T02:44:39.577Z,1.77
2023-10-10T02:47:10.194Z,2.10
2023-10-10T02:49:39.304Z,1.90
2023-10-10T02:52:09.290Z,1.83
2023-10-10T02:54:44.784Z,2.50
2023-10-10T02:57:28.126Z,2.77
2023-10-10T03:00:01.493Z,2.67
2023-10-10T03:02:41.854Z,2.47
2023-10-10T03:05:16.932Z,1.70
2023-10-10T03:07:53.585Z,3.07
2023-10-10T03:10:39.006Z,2.40
2023-10-10T03:13:29.510Z,1.87
2023-10-10T03:15:57.909Z,2.70
2023-10-10T03:18:30.707Z,2.37
2023-10-10T03:21:13.949Z,2.10
2023-10-10T03:23:55.612Z,2.93
2023-10-10T03:26:34.515Z,1.83
2023-10-10T03:29:11.421Z,2.20
2023-10-10T03:31:48.385Z,2.70
2023-10-10T03:34:20.919Z,2.27
2023-10-10T03:37:05.995Z,2.80
2023-10-10T03:39:50.261Z,2.57
2023-10-10T03:42:35.008Z,1.87
2023-10-10T03:45:22.163Z,1.57
2023-10-10T03:48:08.097Z,2.03
2023-10-10T03:51:00.596Z,2.80
2023-10-10T03:53:46.251Z,2.10
2023-10-10T03:56:35.504Z,2.37
2023-10-10T03:59:22.020Z,2.47
2023-10-10T04:02:12.137Z,2.67
2023-10-10T04:05:08.776Z,3.10
2023-10-10T04:07:58.226Z,1.77
2023-10-10T04:10:43.879Z,2.13
2023-10-10T04:13:29.521Z,2.50
2023-10-10T04:16:15.275Z,2.80
2023-10-10T04:19:02.346Z,3.03
2023-10-10T04:21:48.211Z,2.10
2023-10-10T04:24:34.009Z,2.10
2023-10-10T04:27:19.698Z,1.90
2023-10-10T04:30:05.713Z,2.13
2023-10-10T04:32:51.301Z,2.23
2023-10-10T04:35:38.113Z,2.30
2023-10-10T04:38:24.259Z,2.20
2023-10-10T04:41:09.968Z,3.30
2023-10-10T04:43:55.763Z,2.67
2023-10-10T04:46:41.529Z,1.77
2023-10-10T04:49:26.946Z,1.83
2023-10-10T04:52:14.506Z,2.30
2023-10-10T04:55:00.203Z,2.27
2023-10-10T04:57:45.695Z,2.60
2023-10-10T05:00:32.270Z,3.00
2023-10-10T05:03:18.009Z,2.40
2023-10-10T05:06:14.187Z,1.53
2023-10-10T05:09:01.098Z,2.10
2023-10-10T05:11:47.336Z,2.10
2023-10-10T05:14:33.206Z,1.90
2023-10-10T05:17:18.827Z,1.77
2023-10-10T05:20:05.861Z,1.93
2023-10-10T05:22:51.745Z,3.23
2023-10-10T05:25:24.399Z,1.60
2023-10-10T05:27:55.316Z,2.40
2023-10-10T05:30:25.826Z,3.37
2023-10-10T05:33:03.417Z,1.80
2023-10-10T05:35:34.182Z,1.30
2023-10-10T05:38:03.085Z,1.63
2023-10-10T05:40:34.699Z,5.60
2023-10-10T05:43:04.312Z,6.87
2023-10-10T05:45:32.725Z,4.57
2023-10-10T06:35:12.244Z,5.07
2023-10-10T06:40:44.072Z,5.20
2023-10-10T06:43:13.000Z,5.60
2023-10-10T06:45:42.346Z,4.87
2023-10-10T06:48:11.419Z,4.10
2023-10-10T06:50:40.912Z,5.27
2023-10-10T06:53:23.597Z,5.00
2023-10-10T06:55:53.670Z,6.10
2023-10-10T06:58:21.801Z,4.47
2023-10-10T07:00:54.422Z,4.27
2023-10-10T07:03:31.858Z,4.33
2023-10-10T07:06:04.368Z,8.60
2023-10-10T07:08:36.281Z,6.00
2023-10-10T07:11:04.624Z,5.33
2023-10-10T07:13:37.071Z,3.97
2023-10-10T07:16:09.977Z,5.83
2023-10-10T07:18:43.282Z,7.20
2023-10-10T07:21:31.809Z,6.67
2023-10-10T07:24:14.487Z,4.70
2023-10-10T07:26:47.233Z,5.37
2023-10-10T07:29:53.592Z,5.77
2023-10-10T07:32:29.386Z,4.20
2023-10-10T07:35:00.191Z,5.83
2023-10-10T07:37:30.524Z,3.77
2023-10-10T07:40:10.285Z,5.00
2023-10-10T07:42:38.717Z,4.93
2023-10-10T07:45:15.277Z,5.30
2023-10-10T07:47:58.036Z,4.17
2023-10-10T07:50:28.246Z,4.70
2023-10-10T07:52:56.481Z,4.30
2023-10-10T07:55:34.056Z,3.30
2023-10-10T07:58:02.071Z,4.47
2023-10-10T08:00:37.251Z,4.40
2023-10-10T08:03:06.874Z,6.43
2023-10-10T08:05:35.384Z,5.30
2023-10-10T08:08:06.707Z,4.70
2023-10-10T08:10:39.528Z,4.70
2023-10-10T08:13:11.308Z,5.70
2023-10-10T08:15:50.113Z,5.30
2023-10-10T08:18:39.406Z,5.87
2023-10-10T08:21:11.714Z,4.80
2023-10-10T08:23:44.151Z,4.63
2023-10-10T08:26:19.178Z,4.77
2023-10-10T08:28:50.780Z,4.90
2023-10-10T08:31:19.162Z,4.63
2023-10-10T08:33:50.078Z,7.43
2023-10-10T08:36:28.087Z,4.87
2023-10-10T08:38:58.296Z,4.97
2023-10-10T08:41:31.245Z,4.90
2023-10-10T08:44:02.508Z,4.87
2023-10-10T08:46:32.084Z,4.83
2023-10-10T08:49:01.423Z,4.97
2023-10-10T08:52:26.881Z,5.40
2023-10-10T08:54:55.110Z,5.43
2023-10-10T08:57:28.404Z,6.90
2023-10-10T08:59:56.650Z,5.63
2023-10-10T09:02:25.014Z,4.60
2023-10-10T09:04:53.079Z,4.90
2023-10-10T09:07:23.201Z,5.40
2023-10-10T09:10:05.860Z,5.30
2023-10-10T09:12:53.874Z,4.83
2023-10-10T09:15:22.372Z,5.80
2023-10-10T09:17:50.733Z,7.40
2023-10-10T09:20:29.118Z,5.03
2023-10-10T09:23:03.452Z,4.90
2023-10-10T09:25:43.098Z,4.50
2023-10-10T09:28:17.167Z,6.80
2023-10-10T09:30:52.276Z,4.67
2023-10-10T09:33:29.031Z,6.80
2023-10-10T09:36:09.627Z,5.03
2023-10-10T09:38:45.230Z,3.87
2023-10-10T09:41:28.307Z,4.33
2023-10-10T09:44:24.239Z,5.27
2023-10-10T09:47:12.746Z,5.23
2023-10-10T09:49:44.852Z,5.20
2023-10-10T09:52:32.648Z,4.70
2023-10-10T09:55:27.099Z,5.17
2023-10-10T09:58:02.419Z,4.93
2023-10-10T10:00:46.938Z,5.43
2023-10-10T10:03:33.244Z,5.03
2023-10-10T10:06:27.915Z,4.93
2023-10-10T10:09:10.301Z,5.20
2023-10-10T10:11:49.677Z,4.83
2023-10-10T10:14:23.906Z,4.80
2023-10-10T10:16:59.443Z,4.87
2023-10-10T10:19:29.748Z,4.70
2023-10-10T10:22:09.249Z,5.10
2023-10-10T10:24:55.286Z,5.47
2023-10-10T10:27:32.835Z,4.70
2023-10-10T10:30:20.127Z,4.70
2023-10-10T10:32:55.076Z,5.80
2023-10-10T10:35:24.565Z,5.63
2023-10-10T10:37:57.479Z,5.60
2023-10-10T10:40:43.172Z,7.30
2023-10-10T10:43:15.748Z,4.40
2023-10-10T10:45:52.553Z,4.53
2023-10-10T10:48:31.866Z,5.37
2023-10-10T10:51:05.280Z,5.10
2023-10-10T10:53:39.974Z,5.20
2023-10-10T10:56:28.788Z,4.60
2023-10-10T10:59:20.773Z,5.40
2023-10-10T11:01:54.516Z,6.40
2023-10-10T11:04:41.647Z,5.57
2023-10-10T11:07:09.878Z,5.00
2023-10-10T11:09:43.997Z,4.60
2023-10-10T11:12:14.111Z,5.37
2023-10-10T11:14:47.435Z,4.37
2023-10-10T11:17:19.905Z,4.70
2023-10-10T11:19:55.162Z,5.60
2023-10-10T11:22:37.803Z,4.87
2023-10-10T11:25:12.816Z,5.13
2023-10-10T11:27:45.906Z,4.37
2023-10-10T11:30:20.785Z,4.50
2023-10-10T11:32:49.169Z,5.30
2023-10-10T11:35:29.537Z,4.13
2023-10-10T11:38:07.601Z,5.07
2023-10-10T11:40:35.782Z,5.00
2023-10-10T11:43:05.894Z,5.43
2023-10-10T11:45:40.724Z,6.03
2023-10-10T11:48:15.914Z,4.73
2023-10-10T11:50:47.294Z,5.10
2023-10-10T11:53:20.816Z,4.43
2023-10-10T11:55:49.200Z,5.17
2023-10-10T11:58:18.783Z,5.73
2023-10-10T12:01:00.662Z,4.77
2023-10-10T12:03:43.549Z,7.27
2023-10-10T12:06:28.205Z,5.23
2023-10-10T12:08:56.640Z,5.77
2023-10-10T12:11:24.707Z,6.00
2023-10-10T12:13:54.447Z,4.80
2023-10-10T12:16:25.238Z,5.50
2023-10-10T12:18:55.602Z,6.30
2023-10-10T12:21:26.950Z,5.03
2023-10-10T12:24:00.441Z,5.70
2023-10-10T12:26:31.957Z,4.10
2023-10-10T12:29:00.270Z,5.20
2023-10-10T12:31:28.501Z,5.80
2023-10-10T12:33:56.683Z,5.83
2023-10-10T12:36:31.273Z,6.00
2023-10-10T12:39:00.817Z,6.40
2023-10-10T12:41:29.192Z,4.90
2023-10-10T12:43:57.561Z,5.70
2023-10-10T12:46:25.608Z,4.93
2023-10-10T12:48:54.236Z,5.87
2023-10-10T12:51:25.423Z,5.40
2023-10-10T12:54:01.723Z,5.53
2023-10-10T12:56:30.283Z,5.53
2023-10-10T12:59:23.690Z,5.80
2023-10-10T13:01:56.755Z,5.10
2023-10-10T13:04:30.368Z,5.80
2023-10-10T13:07:03.835Z,5.37
2023-10-10T13:09:34.713Z,6.67
2023-10-10T13:12:04.628Z,5.73
2023-10-10T13:14:35.403Z,7.37
2023-10-10T13:17:30.523Z,4.73
2023-10-10T13:20:00.613Z,5.37
2023-10-10T13:22:31.030Z,4.70
2023-10-10T13:25:00.759Z,6.67
2023-10-10T13:27:28.897Z,5.30
2023-10-10T13:29:57.181Z,4.40
2023-10-10T13:32:25.808Z,5.80
2023-10-10T13:34:54.215Z,5.03
2023-10-10T13:37:23.425Z,5.80
2023-10-10T13:39:55.907Z,5.53
2023-10-10T13:42:25.503Z,3.70
2023-10-10T13:45:02.465Z,4.93
2023-10-10T13:47:31.409Z,4.30
2023-10-10T13:50:21.399Z,6.00
2023-10-10T13:52:49.859Z,5.20
2023-10-10T13:55:19.517Z,5.73
2023-10-10T13:57:48.870Z,8.83
2023-10-10T14:00:30.267Z,5.90
2023-10-10T14:03:04.677Z,5.10
2023-10-10T14:05:35.648Z,5.60
2023-10-10T14:08:08.789Z,5.50
2023-10-10T14:10:38.024Z,5.10
2023-10-10T14:13:21.109Z,5.20
2023-10-10T14:15:57.403Z,5.40
2023-10-10T14:18:30.380Z,4.37
2023-10-10T14:21:02.507Z,4.93
2023-10-10T14:23:36.765Z,5.63
2023-10-10T14:26:14.070Z,5.10
2023-10-10T14:28:52.615Z,4.90
2023-10-10T14:31:22.965Z,7.30
2023-10-10T14:33:51.383Z,5.00
2023-10-10T14:36:19.947Z,6.47
2023-10-10T14:38:51.030Z,4.83
2023-10-10T14:41:21.185Z,5.40
2023-10-10T14:43:52.416Z,6.40
2023-10-10T14:46:23.722Z,5.87
2023-10-10T14:48:52.979Z,4.97
2023-10-10T14:51:21.952Z,5.77
2023-10-10T14:53:53.307Z,6.87
2023-10-10T14:56:35.274Z,5.63
2023-10-10T14:59:07.152Z,5.53
2023-10-10T15:01:37.381Z,5.80
2023-10-10T15:04:06.001Z,6.03
2023-10-10T15:06:34.764Z,5.93
2023-10-10T15:09:02.929Z,6.20
2023-10-10T15:11:31.574Z,6.00
2023-10-10T15:14:00.292Z,6.80
2023-10-10T15:16:36.605Z,4.83
2023-10-10T15:19:07.879Z,4.73
2023-10-10T15:21:38.382Z,4.67
2023-10-10T15:24:12.806Z,5.53
2023-10-10T15:26:41.810Z,6.47
2023-10-10T15:29:12.479Z,5.23
2023-10-10T15:31:42.225Z,6.27
2023-10-10T15:34:12.893Z,4.70
2023-10-10T15:36:45.332Z,5.13
2023-10-10T15:39:14.828Z,4.80
2023-10-10T15:41:44.632Z,4.90
2023-10-10T15:44:13.981Z,5.67
2023-10-10T15:46:45.846Z,5.30
2023-10-10T15:49:32.983Z,7.83
2023-10-10T15:52:05.489Z,5.03
2023-10-10T15:54:36.302Z,3.80
2023-10-10T15:57:08.996Z,4.50
2023-10-10T15:59:42.994Z,4.97
2023-10-10T16:02:15.330Z,5.80
2023-10-10T16:04:46.110Z,6.33
2023-10-10T16:07:17.415Z,5.00
2023-10-10T16:09:45.919Z,5.73
2023-10-10T16:12:14.835Z,5.30
2023-10-10T16:14:42.982Z,5.83
2023-10-10T16:17:17.041Z,4.97
2023-10-10T16:19:45.788Z,4.80
2023-10-10T16:22:14.893Z,5.10
2023-10-10T16:24:43.054Z,5.50
2023-10-10T16:27:11.299Z,6.00
2023-10-10T16:29:39.572Z,4.37
2023-10-10T16:32:10.281Z,6.00
2023-10-10T16:34:44.003Z,4.77
2023-10-10T16:37:15.207Z,3.00
2023-10-10T16:39:45.880Z,2.10
2023-10-10T16:42:14.996Z,1.93
2023-10-10T16:44:46.040Z,2.10
2023-10-10T16:47:18.231Z,3.03
2023-10-10T16:49:50.545Z,2.40
2023-10-10T16:52:19.594Z,3.37
2023-10-10T16:54:52.160Z,2.13
2023-10-10T16:57:24.459Z,2.40
2023-10-10T16:59:53.956Z,2.43
2023-10-10T17:02:22.339Z,2.83
2023-10-10T17:04:51.769Z,2.27
2023-10-10T17:07:19.781Z,2.80
2023-10-10T17:09:47.896Z,2.40
2023-10-10T17:12:18.893Z,2.43
2023-10-10T17:14:47.103Z,1.73
2023-10-10T17:17:16.471Z,3.00
2023-10-10T17:19:44.653Z,1.93
2023-10-10T17:22:15.151Z,2.60
2023-10-10T17:24:44.461Z,4.27
2023-10-10T17:27:12.621Z,4.40
2023-10-10T17:29:40.900Z,9.40
2023-10-10T17:32:09.447Z,2.67
2023-10-10T17:34:37.490Z,2.80
2023-10-10T17:37:10.187Z,2.47
2023-10-10T17:39:40.319Z,2.73
2023-10-10T17:42:09.172Z,4.80
2023-10-10T17:44:39.415Z,3.20
2023-10-10T17:47:07.943Z,2.30
2023-10-10T17:49:36.893Z,2.90
2023-10-10T17:52:05.453Z,3.83
2023-10-10T17:54:33.646Z,4.20
2023-10-10T17:57:03.774Z,1.90
2023-10-10T17:59:33.801Z,2.27
2023-10-10T18:02:03.716Z,3.00
2023-10-10T18:04:33.096Z,2.23
2023-10-10T18:07:01.504Z,2.80
2023-10-10T18:09:33.464Z,2.60
2023-10-10T18:12:03.921Z,2.00
2023-10-10T18:14:33.528Z,2.00
2023-10-10T18:17:16.625Z,2.77
2023-10-10T18:19:45.955Z,3.70
2023-10-10T18:22:14.937Z,2.80
2023-10-10T18:24:43.022Z,2.93
2023-10-10T18:27:12.681Z,2.50
2023-10-10T18:29:40.838Z,2.70
2023-10-10T18:32:09.138Z,2.40
2023-10-10T18:34:42.420Z,2.70
2023-10-10T18:37:13.956Z,2.17
2023-10-10T18:39:42.148Z,2.13
2023-10-10T18:42:10.977Z,2.07
2023-10-10T18:44:40.677Z,2.47
2023-10-10T18:47:10.425Z,1.73
2023-10-10T18:49:39.769Z,2.63
2023-10-10T18:52:11.034Z,2.70
2023-10-10T18:54:42.741Z,2.07
2023-10-10T18:57:13.898Z,3.00
2023-10-10T18:59:51.303Z,1.50
2023-10-10T19:02:23.938Z,2.60
2023-10-10T19:04:52.190Z,1.93
2023-10-10T19:07:30.015Z,2.67
2023-10-10T19:10:01.205Z,3.33
2023-10-10T19:12:30.869Z,2.30
2023-10-10T19:15:00.409Z,2.80
2023-10-10T19:17:28.524Z,3.43
2023-10-10T19:19:57.551Z,2.90
2023-10-10T19:22:25.634Z,2.77
2023-10-10T19:24:53.674Z,4.80
2023-10-10T19:27:23.101Z,4.13
2023-10-10T19:29:51.215Z,3.17
2023-10-10T19:32:20.661Z,2.37
2023-10-10T19:34:50.303Z,2.33
2023-10-10T19:37:19.750Z,2.10
2023-10-10T19:39:47.894Z,2.07
2023-10-10T19:42:18.965Z,2.87
2023-10-10T19:44:47.074Z,2.03
